createdAt,value
2018-03-23T00:10:26.052Z,70.19
2018-03-23T00:12:57.702Z,70.30
2018-03-23T00:15:29.917Z,70.30
2018-03-23T00:18:01.303Z,70.49
2018-03-23T00:20:33.426Z,70.57
2018-03-23T00:23:06.339Z,70.96
2018-03-23T00:25:37.867Z,71.11
2018-03-23T00:28:09.414Z,70.79
2018-03-23T00:30:41.187Z,70.53
2018-03-23T00:33:12.870Z,71.14
2018-03-23T00:35:44.136Z,71.61
2018-03-23T00:38:15.644Z,71.77
2018-03-23T00:40:47.208Z,71.80
2018-03-23T00:43:21.440Z,71.70
2018-03-23T00:45:54.912Z,71.87
2018-03-23T00:48:26.606Z,71.73
2018-03-23T00:50:58.230Z,71.56
2018-03-23T00:53:30.882Z,71.63
2018-03-23T00:56:02.474Z,71.86
2018-03-23T00:58:34.060Z,72.07
2018-03-23T01:01:10.887Z,71.87
2018-03-23T01:03:42.389Z,71.93
2018-03-23T01:20:21.355Z,72.81
2018-03-23T01:22:54.167Z,73.00
2018-03-23T01:25:26.091Z,72.71
2018-03-23T01:27:57.989Z,72.80
2018-03-23T01:30:29.975Z,72.68
2018-03-23T01:33:01.618Z,72.71
2018-03-23T01:35:34.225Z,72.53
2018-03-23T01:38:06.010Z,72.50
2018-03-23T01:40:37.860Z,72.35
2018-03-23T01:43:10.253Z,72.52
2018-03-23T01:45:42.602Z,72.73
2018-03-23T01:48:15.124Z,72.54
2018-03-23T01:50:46.816Z,72.42
2018-03-23T01:53:27.344Z,72.14
2018-03-23T01:55:59.274Z,72.12
2018-03-23T01:58:31.414Z,71.71
2018-03-23T02:01:03.655Z,71.28
2018-03-23T02:03:35.141Z,71.22
2018-03-23T02:08:58.719Z,71.49
2018-03-23T02:11:37.550Z,71.53
2018-03-23T02:14:29.270Z,71.57
2018-03-23T02:17:01.183Z,71.78
2018-03-23T02:19:32.381Z,71.99
2018-03-23T02:24:45.859Z,71.46
2018-03-23T02:27:17.241Z,71.34
2018-03-23T02:29:48.549Z,71.94
2018-03-23T02:32:20.713Z,72.38
2018-03-23T02:34:51.894Z,72.61
2018-03-23T02:37:24.130Z,72.70
2018-03-23T02:39:56.558Z,72.88
2018-03-23T02:42:27.669Z,73.07
2018-03-23T02:44:59.513Z,72.79
2018-03-23T02:47:31.605Z,73.05
2018-03-23T02:50:03.678Z,73.29
2018-03-23T02:58:39.421Z,73.69
2018-03-23T03:01:11.082Z,74.17
2018-03-23T03:03:42.413Z,74.70
2018-03-23T03:06:13.977Z,74.28
2018-03-23T03:08:45.452Z,74.66
2018-03-23T03:11:16.482Z,74.80
2018-03-23T03:13:47.857Z,74.54
2018-03-23T03:16:19.929Z,74.70
2018-03-23T03:18:51.425Z,74.91
2018-03-23T03:21:22.519Z,74.65
2018-03-23T03:23:54.495Z,74.31
2018-03-23T03:26:25.566Z,74.26
2018-03-23T03:29:05.430Z,74.17
2018-03-23T03:31:42.711Z,74.20
2018-03-23T03:34:13.507Z,74.31
2018-03-23T03:36:44.792Z,74.45
2018-03-23T03:39:16.349Z,74.14
2018-03-23T03:44:27.948Z,74.16
2018-03-23T03:46:59.951Z,74.32
2018-03-23T03:49:30.804Z,74.22
2018-03-23T03:52:02.684Z,74.08
2018-03-23T03:54:33.462Z,74.15
2018-03-23T03:57:04.588Z,74.04
2018-03-23T03:59:35.468Z,73.70
2018-03-23T04:02:07.134Z,73.59
2018-03-23T04:04:39.507Z,73.43
2018-03-23T04:07:10.770Z,73.11
2018-03-23T04:09:41.874Z,73.01
2018-03-23T04:12:12.775Z,73.43
2018-03-23T04:14:45.220Z,73.27
2018-03-23T04:17:17.574Z,73.46
2018-03-23T04:19:48.822Z,73.52
2018-03-23T04:22:20.867Z,73.49
2018-03-23T04:24:52.012Z,73.62
2018-03-23T04:27:23.657Z,73.34
2018-03-23T04:29:55.492Z,72.94
2018-03-23T04:32:29.257Z,73.10
2018-03-23T04:35:00.610Z,72.48
2018-03-23T04:37:32.058Z,72.07
2018-03-23T04:40:03.804Z,72.20
2018-03-23T04:42:35.338Z,72.14
2018-03-23T04:45:08.204Z,71.95
2018-03-23T04:47:39.239Z,71.53
2018-03-23T04:50:10.410Z,71.17
2018-03-23T04:52:41.244Z,71.03
2018-03-23T04:55:14.073Z,71.45
2018-03-23T04:57:44.518Z,71.80
2018-03-23T05:00:19.959Z,71.60
2018-03-23T05:02:53.414Z,71.58
2018-03-23T05:05:24.174Z,71.58
2018-03-23T05:07:55.175Z,71.97
2018-03-23T05:10:26.356Z,71.71
2018-03-23T05:12:58.261Z,71.75
2018-03-23T05:15:30.115Z,71.36
2018-03-23T05:18:01.406Z,71.63
2018-03-23T05:20:32.671Z,71.26
2018-03-23T05:23:03.872Z,71.04
2018-03-23T05:25:34.827Z,70.72
2018-03-23T05:28:06.389Z,70.45
2018-03-23T05:30:38.560Z,70.24
2018-03-23T05:33:09.358Z,70.43
2018-03-23T05:35:40.722Z,70.76
2018-03-23T05:38:11.870Z,70.63
2018-03-23T05:40:43.892Z,70.25
2018-03-23T05:45:54.488Z,70.15
2018-03-23T05:48:25.965Z,70.34
2018-03-23T05:50:59.614Z,69.83
2018-03-23T05:53:31.415Z,69.76
2018-03-23T05:56:03.330Z,69.82
2018-03-23T05:58:35.004Z,69.39
2018-03-23T06:01:06.726Z,69.20
2018-03-23T06:03:39.272Z,69.09
2018-03-23T06:06:10.942Z,68.68
2018-03-23T06:08:44.420Z,69.04
2018-03-23T06:11:30.873Z,69.15
2018-03-23T06:14:04.072Z,69.00
2018-03-23T06:16:37.040Z,69.09
2018-03-23T06:19:09.341Z,69.21
2018-03-23T06:21:41.704Z,69.15
2018-03-23T06:24:12.944Z,69.69
2018-03-23T06:26:45.744Z,69.51
2018-03-23T06:29:17.619Z,69.09
2018-03-23T06:31:50.324Z,69.27
2018-03-23T06:34:22.831Z,69.23
2018-03-23T06:36:54.381Z,68.76
2018-03-23T06:39:26.705Z,68.95
2018-03-23T06:42:01.185Z,68.84
2018-03-23T06:44:36.095Z,68.63
2018-03-23T06:47:13.421Z,68.35
2018-03-23T06:50:06.297Z,68.69
2018-03-23T06:52:39.340Z,68.45
2018-03-23T06:57:49.749Z,68.30
2018-03-23T07:03:25.878Z,67.59
2018-03-23T07:05:59.614Z,67.60
2018-03-23T07:08:31.472Z,67.24
2018-03-23T07:11:04.832Z,66.99
2018-03-23T07:13:37.296Z,67.07
2018-03-23T07:16:12.933Z,66.69
2018-03-23T07:18:46.186Z,66.37
2018-03-23T07:21:18.668Z,66.08
2018-03-23T07:23:50.207Z,65.95
2018-03-23T07:26:34.291Z,66.16
2018-03-23T07:29:06.121Z,66.11
2018-03-23T07:31:39.018Z,65.58
2018-03-23T07:34:15.858Z,64.56
2018-03-23T07:36:59.519Z,64.86
2018-03-23T07:39:39.240Z,64.48
2018-03-23T07:42:11.413Z,64.20
2018-03-23T07:44:50.577Z,64.39
2018-03-23T07:47:23.422Z,63.82
2018-03-23T07:49:56.293Z,63.32
2018-03-23T07:52:28.069Z,62.76
2018-03-23T07:54:59.414Z,62.47
2018-03-23T07:57:30.895Z,62.35
2018-03-23T08:00:16.849Z,62.50
2018-03-23T08:02:52.653Z,62.11
2018-03-23T08:05:25.604Z,61.38
2018-03-23T08:07:57.378Z,61.85
2018-03-23T08:10:29.217Z,61.57
2018-03-23T08:13:04.808Z,61.80
2018-03-23T08:15:51.209Z,61.21
2018-03-23T08:18:24.406Z,60.64
2018-03-23T08:20:56.596Z,61.14
2018-03-23T08:23:28.507Z,60.71
2018-03-23T08:26:01.361Z,60.29
2018-03-23T08:28:32.745Z,60.67
2018-03-23T08:31:06.337Z,59.34
2018-03-23T08:33:40.252Z,59.08
2018-03-23T08:36:11.651Z,58.71
2018-03-23T08:38:45.226Z,57.77
2018-03-23T08:41:18.855Z,58.51
2018-03-23T08:43:51.489Z,57.38
2018-03-23T08:46:26.184Z,57.73
2018-03-23T08:49:04.804Z,56.75
2018-03-23T08:51:36.886Z,56.95
2018-03-23T08:54:12.287Z,55.08
2018-03-23T08:56:46.235Z,55.40
2018-03-23T08:59:19.465Z,54.03
2018-03-23T09:01:53.456Z,52.77
2018-03-23T09:04:43.970Z,53.66
2018-03-23T09:07:16.556Z,53.56
2018-03-23T09:09:52.135Z,53.01
2018-03-23T09:12:24.509Z,52.74
2018-03-23T09:14:55.987Z,51.79
2018-03-23T09:17:27.833Z,52.47
2018-03-23T09:20:02.039Z,51.86
2018-03-23T09:22:33.961Z,52.03
2018-03-23T09:25:12.358Z,51.96
2018-03-23T09:27:44.859Z,51.21
2018-03-23T09:30:21.860Z,50.25
2018-03-23T09:32:55.259Z,51.37
2018-03-23T09:35:28.234Z,52.12
2018-03-23T09:38:00.157Z,51.49
2018-03-23T09:40:31.353Z,52.09
2018-03-23T09:43:06.306Z,51.27
2018-03-23T09:45:38.585Z,50.59
2018-03-23T09:48:13.073Z,49.47
2018-03-23T09:50:44.228Z,49.49
2018-03-23T09:53:19.862Z,48.54
2018-03-23T09:55:51.061Z,47.68
2018-03-23T09:58:24.367Z,48.06
2018-03-23T10:00:58.481Z,47.86
2018-03-23T10:03:30.597Z,48.57
2018-03-23T10:06:02.393Z,48.79
2018-03-23T10:08:33.652Z,49.01
2018-03-23T10:11:04.520Z,49.28
2018-03-23T10:13:35.476Z,49.93
2018-03-23T10:16:07.570Z,50.71
2018-03-23T10:18:39.044Z,51.25
2018-03-23T10:21:11.942Z,51.81
2018-03-23T10:23:44.918Z,52.00
2018-03-23T10:26:16.078Z,51.69
2018-03-23T10:28:49.242Z,51.72
2018-03-23T10:31:20.804Z,52.03
2018-03-23T10:33:54.184Z,52.00
2018-03-23T10:36:25.891Z,52.64
2018-03-23T10:38:56.538Z,52.65
2018-03-23T10:41:27.630Z,52.86
2018-03-23T10:43:58.556Z,53.57
2018-03-23T10:46:30.552Z,52.91
2018-03-23T10:49:01.868Z,52.91
2018-03-23T10:52:09.976Z,53.09
2018-03-23T10:54:45.764Z,52.68
2018-03-23T10:57:18.946Z,53.02
2018-03-23T10:59:54.258Z,53.13
2018-03-23T11:02:32.178Z,52.99
2018-03-23T11:05:11.560Z,53.21
2018-03-23T11:07:45.236Z,52.55
2018-03-23T11:10:22.459Z,53.18
2018-03-23T11:12:54.117Z,53.70
2018-03-23T11:15:32.211Z,53.81
2018-03-23T11:18:06.650Z,54.15
2018-03-23T11:20:53.480Z,53.94
2018-03-23T11:23:26.004Z,53.87
2018-03-23T11:25:56.958Z,53.59
2018-03-23T11:28:28.300Z,53.30
2018-03-23T11:31:02.147Z,53.18
2018-03-23T11:33:34.578Z,53.55
2018-03-23T11:36:06.842Z,53.69
2018-03-23T11:38:39.001Z,54.91
2018-03-23T11:41:11.159Z,54.64
2018-03-23T11:43:42.683Z,54.29
2018-03-23T11:46:39.460Z,54.27
2018-03-23T11:49:24.743Z,54.76
2018-03-23T11:52:05.260Z,55.00
2018-03-23T11:54:44.925Z,55.12
2018-03-23T11:57:16.144Z,55.47
2018-03-23T11:59:48.823Z,55.60
2018-03-23T12:02:27.493Z,55.12
2018-03-23T12:04:59.258Z,56.23
2018-03-23T12:07:36.047Z,55.86
2018-03-23T12:10:14.435Z,55.93
2018-03-23T12:12:49.934Z,56.03
2018-03-23T12:15:26.140Z,56.18
2018-03-23T12:18:02.361Z,56.59
2018-03-23T12:20:33.939Z,56.90
2018-03-23T12:23:06.900Z,56.70
2018-03-23T12:25:38.181Z,56.78
2018-03-23T12:28:12.129Z,57.36
2018-03-23T12:30:48.386Z,56.91
2018-03-23T12:33:20.103Z,56.80
2018-03-23T12:35:52.150Z,56.77
2018-03-23T12:38:24.014Z,55.95
2018-03-23T12:40:55.811Z,56.01
2018-03-23T12:43:27.620Z,55.60
2018-03-23T12:46:09.538Z,54.96
2018-03-23T12:48:46.198Z,54.85
2018-03-23T12:51:22.619Z,55.02
2018-03-23T12:53:54.410Z,54.82
2018-03-23T12:56:30.676Z,54.93
2018-03-23T12:59:03.913Z,54.58
2018-03-23T13:04:35.279Z,54.46
2018-03-23T13:07:07.114Z,54.72
2018-03-23T13:09:49.912Z,55.20
2018-03-23T13:12:28.230Z,54.76
2018-03-23T13:15:00.899Z,55.12
2018-03-23T13:20:23.668Z,54.52
2018-03-23T13:22:59.597Z,54.90
2018-03-23T13:25:38.456Z,55.14
2018-03-23T13:28:32.414Z,55.66
2018-03-23T13:31:10.961Z,55.37
2018-03-23T13:33:47.366Z,55.19
2018-03-23T13:36:42.973Z,54.82
2018-03-23T13:39:16.055Z,54.69
2018-03-23T13:42:02.525Z,54.54
2018-03-23T13:44:36.123Z,55.08
2018-03-23T13:47:10.142Z,54.82
2018-03-23T13:49:42.625Z,55.06
2018-03-23T13:52:20.050Z,55.28
2018-03-23T13:55:01.336Z,55.29
2018-03-23T13:57:36.923Z,55.37
2018-03-23T14:00:25.935Z,55.21
2018-03-23T14:02:57.474Z,55.59
2018-03-23T14:05:28.438Z,55.44
2018-03-23T14:07:59.948Z,55.65
2018-03-23T14:10:37.951Z,55.37
2018-03-23T14:13:09.723Z,55.12
2018-03-23T14:15:41.166Z,55.48
2018-03-23T14:18:18.407Z,55.48
2018-03-23T14:20:49.739Z,55.54
2018-03-23T14:23:23.657Z,55.65
2018-03-23T14:26:10.619Z,56.92
2018-03-23T14:33:07.018Z,56.70
2018-03-23T14:36:15.278Z,56.47
2018-03-23T14:38:53.388Z,55.89
2018-03-23T14:41:35.352Z,55.29
2018-03-23T14:44:14.592Z,55.82
2018-03-23T14:46:49.113Z,55.77
2018-03-23T14:49:24.546Z,55.61
2018-03-23T14:51:55.830Z,55.30
2018-03-23T14:54:27.425Z,55.26
2018-03-23T14:56:59.388Z,55.24
2018-03-23T15:09:55.916Z,55.46
2018-03-23T15:12:34.534Z,55.10
2018-03-23T15:20:54.894Z,55.15
2018-03-23T15:23:26.184Z,55.02
2018-03-23T15:25:57.634Z,54.81
2018-03-23T15:28:30.454Z,54.81
2018-03-23T15:31:05.682Z,55.65
2018-03-23T15:37:44.243Z,55.12
2018-03-23T15:40:17.033Z,55.51
2018-03-23T15:42:47.857Z,55.20
2018-03-23T15:45:19.321Z,55.38
2018-03-23T15:47:50.758Z,55.39
2018-03-23T15:50:53.830Z,55.30
2018-03-23T15:53:25.892Z,55.40
2018-03-23T16:03:05.746Z,54.35
2018-03-23T16:05:45.213Z,55.08
2018-03-23T16:08:27.471Z,55.11
2018-03-23T16:11:01.830Z,55.27
2018-03-23T16:13:33.948Z,55.47
2018-03-23T16:16:07.761Z,55.35
2018-03-23T16:18:39.946Z,56.94
2018-03-23T16:21:11.516Z,56.58
2018-03-23T16:32:22.415Z,56.95
2018-03-23T16:35:02.059Z,56.84
2018-03-23T16:37:43.246Z,56.17
2018-03-23T16:43:01.406Z,55.80
2018-03-23T16:45:47.732Z,56.48
2018-03-23T16:48:21.509Z,56.74
2018-03-23T16:50:55.393Z,56.23
2018-03-23T16:53:29.944Z,57.33
2018-03-23T16:56:12.632Z,57.47
2018-03-23T16:58:54.233Z,57.21
2018-03-23T17:01:29.018Z,58.04
2018-03-23T17:04:03.665Z,58.38
2018-03-23T17:06:36.711Z,58.17
2018-03-23T17:13:16.654Z,57.42
2018-03-23T17:15:48.322Z,57.24
2018-03-23T17:18:20.542Z,57.24
2018-03-23T17:20:52.183Z,57.47
2018-03-23T17:23:23.353Z,56.98
2018-03-23T17:25:54.613Z,57.33
2018-03-23T17:28:28.492Z,57.11
2018-03-23T17:33:53.821Z,56.88
2018-03-23T17:36:36.201Z,56.55
2018-03-23T17:44:49.850Z,56.40
2018-03-23T17:51:30.557Z,55.57
2018-03-23T17:54:02.528Z,56.10
2018-03-23T17:56:34.976Z,57.19
2018-03-23T17:59:09.852Z,57.98
2018-03-23T18:01:43.973Z,57.39
2018-03-23T18:04:24.363Z,56.88
2018-03-23T18:09:48.773Z,56.28
2018-03-23T18:12:32.716Z,56.40
2018-03-23T18:30:53.990Z,56.44
2018-03-23T18:37:30.129Z,56.35
2018-03-23T18:40:06.927Z,56.97
2018-03-23T18:42:41.184Z,57.04
2018-03-23T18:45:13.978Z,58.15
2018-03-23T18:47:46.076Z,58.96
2018-03-23T18:50:18.387Z,59.09
2018-03-23T18:52:49.688Z,58.92
2018-03-23T19:04:21.909Z,60.11
2018-03-23T19:14:30.417Z,58.73
2018-03-23T19:17:10.229Z,58.97
2018-03-23T19:27:17.983Z,59.52
2018-03-23T19:35:41.940Z,59.49
2018-03-23T19:38:28.542Z,59.08
2018-03-23T19:43:51.018Z,59.16
2018-03-23T19:46:22.889Z,58.46
2018-03-23T19:48:54.243Z,58.16
2018-03-23T20:01:51.121Z,59.67
2018-03-23T20:04:32.796Z,59.05
2018-03-23T20:07:04.559Z,58.63
2018-03-23T20:09:35.761Z,59.24
2018-03-23T20:12:07.880Z,59.19
2018-03-23T20:14:39.573Z,59.73
2018-03-23T20:17:11.008Z,59.18
2018-03-23T20:25:54.530Z,58.76
2018-03-23T20:28:46.144Z,59.18
2018-03-23T20:31:21.920Z,58.88
2018-03-23T20:33:54.567Z,59.37
2018-03-23T20:36:27.808Z,58.58
2018-03-23T20:38:59.616Z,58.26
2018-03-23T20:46:18.150Z,57.92
2018-03-23T20:54:32.102Z,57.40
2018-03-23T20:57:03.275Z,58.99
2018-03-23T20:59:34.170Z,59.06
2018-03-23T21:02:05.363Z,58.57
2018-03-23T21:07:29.396Z,59.77
2018-03-23T21:10:02.261Z,59.63
2018-03-23T21:12:34.840Z,59.95
2018-03-23T21:15:08.625Z,58.94
2018-03-23T21:17:40.949Z,59.71
2018-03-23T21:20:13.854Z,58.87
2018-03-23T21:22:45.428Z,59.99
2018-03-23T21:25:22.184Z,59.37
2018-03-23T21:27:54.377Z,60.02
2018-03-23T21:30:29.219Z,59.11
2018-03-23T21:33:00.415Z,58.57
2018-03-23T21:35:32.054Z,58.15
2018-03-23T21:38:03.847Z,58.31
2018-03-23T21:40:35.765Z,58.19
2018-03-23T21:43:09.454Z,58.55
2018-03-23T21:45:41.785Z,58.46
2018-03-23T21:48:15.782Z,58.08
2018-03-23T21:50:46.634Z,57.61
2018-03-23T21:53:21.407Z,57.45
2018-03-23T21:55:52.658Z,57.31
2018-03-23T21:58:23.774Z,57.11
2018-03-23T22:00:57.049Z,57.23
2018-03-23T22:03:28.102Z,58.18
2018-03-23T22:05:59.371Z,58.10
2018-03-23T22:08:30.677Z,58.14
2018-03-23T22:11:01.893Z,58.77
2018-03-23T22:13:32.877Z,59.18
2018-03-23T22:16:08.716Z,58.48
2018-03-23T22:18:40.310Z,57.47
2018-03-23T22:21:12.532Z,57.90
2018-03-23T22:23:47.077Z,58.13
2018-03-23T22:28:55.899Z,57.17
2018-03-23T22:31:27.557Z,58.29
2018-03-23T22:33:58.535Z,57.25
2018-03-23T22:42:39.637Z,56.99
2018-03-23T22:45:12.846Z,56.53
2018-03-23T22:47:47.020Z,57.16
2018-03-23T22:50:19.974Z,57.27
2018-03-23T22:52:53.152Z,56.68
2018-03-23T22:55:24.624Z,56.39
2018-03-23T22:57:55.816Z,55.84
2018-03-23T23:00:27.577Z,55.58
2018-03-23T23:02:59.678Z,55.53
2018-03-23T23:05:31.414Z,55.27
2018-03-23T23:08:04.367Z,54.82
2018-03-23T23:10:35.492Z,54.32
2018-03-23T23:13:07.067Z,54.64
2018-03-23T23:15:39.154Z,54.55
2018-03-23T23:18:10.240Z,54.33
2018-03-23T23:20:42.059Z,54.20
2018-03-23T23:23:14.561Z,54.27
2018-03-23T23:25:46.416Z,54.42
2018-03-23T23:28:17.837Z,54.42
2018-03-23T23:30:49.689Z,54.33
2018-03-23T23:33:21.645Z,54.15
2018-03-23T23:35:52.795Z,54.66
2018-03-23T23:38:24.537Z,54.60
2018-03-23T23:40:56.316Z,54.84
2018-03-23T23:43:28.136Z,55.38
2018-03-23T23:46:00.963Z,55.18
2018-03-23T23:48:31.987Z,55.30
2018-03-23T23:51:03.688Z,55.60
2018-03-23T23:53:40.035Z,55.28
2018-03-23T23:56:12.137Z,55.20
2018-03-23T23:58:43.898Z,55.36
